createdAt,value
2023-04-12T00:00:25.841Z,999.69
2023-04-12T00:01:04.805Z,999.69
2023-04-12T00:02:04.812Z,999.61
2023-04-12T00:03:04.884Z,999.59
2023-04-12T00:04:04.866Z,999.59
2023-04-12T00:05:04.735Z,999.51
2023-04-12T00:06:25.635Z,999.57
2023-04-12T00:07:04.607Z,999.53
2023-04-12T00:08:04.566Z,999.59
2023-04-12T00:09:04.529Z,999.51
2023-04-12T00:10:04.490Z,999.47
2023-04-12T00:11:04.453Z,999.49
2023-04-12T00:12:25.416Z,999.48
2023-04-12T00:13:04.386Z,999.45
2023-04-12T00:14:04.360Z,999.42
2023-04-12T00:15:05.644Z,999.44
2023-04-12T00:16:04.477Z,999.38
2023-04-12T00:17:04.265Z,999.31
2023-04-12T00:18:25.543Z,999.28
2023-04-12T00:19:04.182Z,999.27
2023-04-12T00:20:04.134Z,999.28
2023-04-12T00:21:04.109Z,999.24
2023-04-12T00:22:04.067Z,999.23
2023-04-12T00:23:04.036Z,999.20
2023-04-12T00:24:25.060Z,999.18
2023-04-12T00:25:03.961Z,999.17
2023-04-12T00:26:03.921Z,999.10
2023-04-12T00:27:03.893Z,999.05
2023-04-12T00:28:03.851Z,999.02
2023-04-12T00:29:03.826Z,998.98
2023-04-12T00:30:24.775Z,998.96
2023-04-12T00:31:03.828Z,998.93
2023-04-12T00:32:03.766Z,998.88
2023-04-12T00:33:03.716Z,998.87
2023-04-12T00:34:03.644Z,998.85
2023-04-12T00:35:03.619Z,998.80
2023-04-12T00:36:24.565Z,998.76
2023-04-12T00:37:03.539Z,998.72
2023-04-12T00:38:03.511Z,998.66
2023-04-12T00:39:03.474Z,998.69
2023-04-12T00:40:03.427Z,998.67
2023-04-12T00:41:03.395Z,998.65
2023-04-12T00:42:24.364Z,998.64
2023-04-12T00:43:03.325Z,998.59
2023-04-12T00:44:03.288Z,998.58
2023-04-12T00:45:03.272Z,998.55
2023-04-12T00:46:03.215Z,998.49
2023-04-12T00:47:03.322Z,998.51
2023-04-12T00:48:24.149Z,998.51
2023-04-12T00:49:03.112Z,998.46
2023-04-12T00:50:03.091Z,998.41
2023-04-12T00:51:03.047Z,998.40
2023-04-12T00:52:03.006Z,998.38
2023-04-12T00:53:02.986Z,998.35
2023-04-12T00:54:23.935Z,998.37
2023-04-12T00:55:02.898Z,998.39
2023-04-12T00:56:02.866Z,998.34
2023-04-12T00:57:02.840Z,998.34
2023-04-12T00:58:02.795Z,998.29
2023-04-12T00:59:02.753Z,998.21
2023-04-12T01:00:23.719Z,998.26
2023-04-12T01:01:02.740Z,998.19
2023-04-12T01:02:02.722Z,998.17
2023-04-12T01:03:02.745Z,998.15
2023-04-12T01:04:02.607Z,998.11
2023-04-12T01:05:02.564Z,998.08
2023-04-12T01:06:23.520Z,998.11
2023-04-12T01:07:02.484Z,998.09
2023-04-12T01:08:02.445Z,998.05
2023-04-12T01:09:02.458Z,998.02
2023-04-12T01:10:02.372Z,997.95
2023-04-12T01:11:02.539Z,997.98
2023-04-12T01:12:23.300Z,998.02
2023-04-12T01:13:02.265Z,998.00
2023-04-12T01:14:02.239Z,997.95
2023-04-12T01:15:02.189Z,997.85
2023-04-12T01:16:02.186Z,997.91
2023-04-12T01:17:02.178Z,997.91
2023-04-12T01:18:23.075Z,997.86
2023-04-12T01:19:02.053Z,997.83
2023-04-12T01:20:02.478Z,997.82
2023-04-12T01:21:01.991Z,997.80
2023-04-12T01:22:01.939Z,997.77
2023-04-12T01:23:01.917Z,997.74
2023-04-12T01:24:22.864Z,997.73
2023-04-12T01:25:01.850Z,997.66
2023-04-12T01:26:01.831Z,997.73
2023-04-12T01:27:01.772Z,997.73
2023-04-12T01:28:01.733Z,997.69
2023-04-12T01:29:01.717Z,997.67
2023-04-12T01:30:22.655Z,997.63
2023-04-12T01:31:01.633Z,997.58
2023-04-12T01:32:01.737Z,997.55
2023-04-12T01:33:01.600Z,997.52
2023-04-12T01:34:01.520Z,997.43
2023-04-12T01:35:01.516Z,997.42
2023-04-12T01:36:22.436Z,997.39
2023-04-12T01:37:01.437Z,997.34
2023-04-12T01:38:01.381Z,997.30
2023-04-12T01:39:01.349Z,997.24
2023-04-12T01:40:01.301Z,997.19
2023-04-12T01:41:01.282Z,997.16
2023-04-12T01:42:22.231Z,997.13
2023-04-12T01:43:01.198Z,997.15
2023-04-12T01:44:01.161Z,997.14
2023-04-12T01:45:01.138Z,997.12
2023-04-12T01:46:01.130Z,997.05
2023-04-12T01:47:01.061Z,997.04
2023-04-12T01:48:22.023Z,996.98
2023-04-12T01:49:00.983Z,996.94
2023-04-12T01:50:00.963Z,996.89
2023-04-12T01:51:00.926Z,996.90
2023-04-12T01:52:00.880Z,996.88
2023-04-12T01:53:00.860Z,996.88
2023-04-12T01:54:21.805Z,996.88
2023-04-12T01:55:00.825Z,996.89
2023-04-12T01:56:00.761Z,996.88
2023-04-12T01:57:00.743Z,996.90
2023-04-12T01:58:00.658Z,996.85
2023-04-12T01:59:00.640Z,996.87
2023-04-12T02:00:21.594Z,996.85
2023-04-12T02:01:00.600Z,996.84
2023-04-12T02:02:00.573Z,996.78
2023-04-12T02:03:00.709Z,996.77
2023-04-12T02:04:00.947Z,996.75
2023-04-12T02:05:00.416Z,996.73
2023-04-12T02:06:21.377Z,996.68
2023-04-12T02:07:00.340Z,996.63
2023-04-12T02:08:00.314Z,996.61
2023-04-12T02:09:00.301Z,996.55
2023-04-12T02:10:00.239Z,996.54
2023-04-12T02:11:00.211Z,996.50
2023-04-12T02:12:21.161Z,996.50
2023-04-12T02:13:00.136Z,996.50
2023-04-12T02:14:00.130Z,996.49
2023-04-12T02:15:00.074Z,996.51
2023-04-12T02:16:00.041Z,996.52
2023-04-12T02:17:00.009Z,996.47
2023-04-12T02:18:20.947Z,996.49
2023-04-12T02:18:59.918Z,996.46
2023-04-12T02:19:59.879Z,996.42
2023-04-12T02:20:59.843Z,996.48
2023-04-12T02:21:59.824Z,996.39
2023-04-12T02:22:59.766Z,996.40
2023-04-12T02:24:20.792Z,996.34
2023-04-12T02:24:59.697Z,996.33
2023-04-12T02:25:59.680Z,996.31
2023-04-12T02:26:59.633Z,996.24
2023-04-12T02:27:59.592Z,996.23
2023-04-12T02:28:59.568Z,996.23
2023-04-12T02:30:20.520Z,996.21
2023-04-12T02:30:59.510Z,996.18
2023-04-12T02:31:59.443Z,996.18
2023-04-12T02:32:59.438Z,996.16
2023-04-12T02:33:59.376Z,996.11
2023-04-12T02:34:59.352Z,996.08
2023-04-12T02:36:20.300Z,996.01
2023-04-12T02:36:59.276Z,995.95
2023-04-12T02:37:59.240Z,995.89
2023-04-12T02:38:59.205Z,995.83
2023-04-12T02:39:59.181Z,995.81
2023-04-12T02:40:59.146Z,995.80
2023-04-12T02:42:20.090Z,995.80
2023-04-12T02:42:59.058Z,995.76
2023-04-12T02:43:59.139Z,995.68
2023-04-12T02:44:58.990Z,995.66
2023-04-12T02:45:58.962Z,995.61
2023-04-12T02:46:58.905Z,995.59
2023-04-12T02:48:19.876Z,995.54
2023-04-12T02:48:58.844Z,995.51
2023-04-12T02:49:58.818Z,995.47
2023-04-12T02:50:58.775Z,995.45
2023-04-12T02:51:58.746Z,995.42
2023-04-12T02:52:58.697Z,995.37
2023-04-12T02:54:19.652Z,995.39
2023-04-12T02:54:58.634Z,995.38
2023-04-12T02:55:58.590Z,995.35
2023-04-12T02:56:58.544Z,995.34
2023-04-12T02:57:58.519Z,995.33
2023-04-12T02:58:58.482Z,995.32
2023-04-12T03:00:19.440Z,995.28
2023-04-12T03:00:58.451Z,995.27
2023-04-12T03:01:58.525Z,995.18
2023-04-12T03:02:58.454Z,995.20
2023-04-12T03:03:58.700Z,995.17
2023-04-12T03:04:58.261Z,995.15
2023-04-12T03:06:19.217Z,995.10
2023-04-12T03:06:58.194Z,995.03
2023-04-12T03:07:58.153Z,995.02
2023-04-12T03:08:58.115Z,995.01
2023-04-12T03:09:58.082Z,995.01
2023-04-12T03:10:58.051Z,994.99
2023-04-12T03:12:19.025Z,994.91
2023-04-12T03:12:58.008Z,994.88
2023-04-12T03:13:58.129Z,994.89
2023-04-12T03:14:57.906Z,994.90
2023-04-12T03:15:57.942Z,994.87
2023-04-12T03:16:57.835Z,994.84
2023-04-12T03:18:18.798Z,994.79
2023-04-12T03:18:57.821Z,994.72
2023-04-12T03:19:57.747Z,994.65
2023-04-12T03:20:57.685Z,994.64
2023-04-12T03:21:57.668Z,994.64
2023-04-12T03:22:57.629Z,994.60
2023-04-12T03:24:18.576Z,994.59
2023-04-12T03:24:57.537Z,994.52
2023-04-12T03:25:57.515Z,994.50
2023-04-12T03:26:57.475Z,994.45
2023-04-12T03:27:57.455Z,994.39
2023-04-12T03:28:57.398Z,994.37
2023-04-12T03:30:18.363Z,994.39
2023-04-12T03:30:57.351Z,994.36
2023-04-12T03:31:57.296Z,994.37
2023-04-12T03:32:57.267Z,994.41
2023-04-12T03:33:57.719Z,994.37
2023-04-12T03:34:57.193Z,994.36
2023-04-12T03:36:18.163Z,994.36
2023-04-12T03:36:57.134Z,994.28
2023-04-12T03:37:57.080Z,994.23
2023-04-12T03:38:57.035Z,994.22
2023-04-12T03:39:57.005Z,994.19
2023-04-12T03:40:56.972Z,994.15
2023-04-12T03:42:31.778Z,994.19
2023-04-12T03:42:56.894Z,994.12
2023-04-12T03:43:57.106Z,994.08
2023-04-12T03:44:56.829Z,994.07
2023-04-12T03:45:56.786Z,994.03
2023-04-12T03:46:56.777Z,994.01
2023-04-12T03:48:17.709Z,993.97
2023-04-12T03:48:56.694Z,994.00
2023-04-12T03:50:09.717Z,993.95
2023-04-12T03:50:56.609Z,993.92
2023-04-12T03:51:56.574Z,993.87
2023-04-12T03:52:56.554Z,993.86
2023-04-12T03:54:17.502Z,993.83
2023-04-12T03:54:56.458Z,993.75
2023-04-12T03:55:56.437Z,993.73
2023-04-12T03:56:56.417Z,993.73
2023-04-12T03:57:56.351Z,993.69
2023-04-12T03:58:56.324Z,993.71
2023-04-12T04:00:17.289Z,993.67
2023-04-12T04:00:56.246Z,993.69
2023-04-12T04:01:56.236Z,993.63
2023-04-12T04:02:56.234Z,993.63
2023-04-12T04:03:56.511Z,993.56
2023-04-12T04:04:56.149Z,993.61
2023-04-12T04:06:17.067Z,993.53
2023-04-12T04:06:56.028Z,993.55
2023-04-12T04:07:56.004Z,993.50
2023-04-12T04:08:55.957Z,993.49
2023-04-12T04:09:55.943Z,993.51
2023-04-12T04:10:55.886Z,993.53
2023-04-12T04:12:16.972Z,993.50
2023-04-12T04:12:55.819Z,993.50
2023-04-12T04:13:56.142Z,993.42
2023-04-12T04:14:55.738Z,993.41
2023-04-12T04:15:55.754Z,993.39
2023-04-12T04:16:55.668Z,993.33
2023-04-12T04:18:16.641Z,993.30
2023-04-12T04:18:55.598Z,993.27
2023-04-12T04:19:55.576Z,993.27
2023-04-12T04:20:55.554Z,993.23
2023-04-12T04:21:55.493Z,993.24
2023-04-12T04:22:55.454Z,993.22
2023-04-12T04:24:16.419Z,993.21
2023-04-12T04:24:55.392Z,993.21
2023-04-12T04:25:55.352Z,993.23
2023-04-12T04:26:55.314Z,993.13
2023-04-12T04:27:55.278Z,993.12
2023-04-12T04:28:55.239Z,993.12
2023-04-12T04:30:16.194Z,993.06
2023-04-12T04:30:55.168Z,992.99
2023-04-12T04:31:55.149Z,993.03
2023-04-12T04:32:55.202Z,992.97
2023-04-12T04:33:55.150Z,992.91
2023-04-12T04:34:55.038Z,992.91
2023-04-12T04:36:15.995Z,992.86
2023-04-12T04:36:54.967Z,992.89
2023-04-12T04:37:54.932Z,992.89
2023-04-12T04:38:54.897Z,992.85
2023-04-12T04:39:54.850Z,992.85
2023-04-12T04:40:54.814Z,992.84
2023-04-12T04:42:15.784Z,992.85
2023-04-12T04:42:54.744Z,992.86
2023-04-12T04:43:54.770Z,992.78
2023-04-12T04:44:54.667Z,992.77
2023-04-12T04:45:54.810Z,992.80
2023-04-12T04:46:54.612Z,992.76
2023-04-12T04:48:15.558Z,992.78
2023-04-12T04:48:54.518Z,992.76
2023-04-12T04:49:54.478Z,992.75
2023-04-12T04:50:54.464Z,992.73
2023-04-12T04:51:54.422Z,992.75
2023-04-12T04:52:54.379Z,992.76
2023-04-12T04:54:15.334Z,992.75
2023-04-12T04:54:54.318Z,992.73
2023-04-12T04:55:54.288Z,992.69
2023-04-12T04:56:54.242Z,992.69
2023-04-12T04:57:54.224Z,992.67
2023-04-12T04:58:56.883Z,992.62
2023-04-12T05:00:15.131Z,992.61
2023-04-12T05:00:54.101Z,992.60
2023-04-12T05:01:54.086Z,992.58
2023-04-12T05:02:54.185Z,992.56
2023-04-12T05:03:54.043Z,992.51
2023-04-12T05:04:53.932Z,992.52
2023-04-12T05:06:14.893Z,992.48
2023-04-12T05:06:53.880Z,992.49
2023-04-12T05:07:53.835Z,992.47
2023-04-12T05:08:53.790Z,992.44
2023-04-12T05:09:53.905Z,992.44
2023-04-12T05:10:53.717Z,992.44
2023-04-12T05:12:14.807Z,992.44
2023-04-12T05:12:53.642Z,992.40
2023-04-12T05:13:53.624Z,992.40
2023-04-12T05:14:58.213Z,992.38
2023-04-12T05:15:53.544Z,992.43
2023-04-12T05:16:53.562Z,992.41
2023-04-12T05:18:14.471Z,992.36
2023-04-12T05:18:53.424Z,992.39
2023-04-12T05:19:53.390Z,992.36
2023-04-12T05:20:53.348Z,992.36
2023-04-12T05:21:53.314Z,992.35
2023-04-12T05:22:53.293Z,992.34
2023-04-12T05:24:14.243Z,992.33
2023-04-12T05:24:53.211Z,992.26
2023-04-12T05:25:53.165Z,992.23
2023-04-12T05:26:53.129Z,992.24
2023-04-12T05:27:53.143Z,992.26
2023-04-12T05:28:53.066Z,992.22
2023-04-12T05:30:14.023Z,992.20
2023-04-12T05:30:53.010Z,992.16
2023-04-12T05:31:52.956Z,992.18
2023-04-12T05:32:53.019Z,992.20
2023-04-12T05:33:52.881Z,992.17
2023-04-12T05:34:52.838Z,992.10
2023-04-12T05:36:13.806Z,992.14
2023-04-12T05:36:52.775Z,992.13
2023-04-12T05:37:52.735Z,992.09
2023-04-12T05:38:52.688Z,992.08
2023-04-12T05:39:52.675Z,992.07
2023-04-12T05:40:52.628Z,992.10
2023-04-12T05:42:13.581Z,992.12
2023-04-12T05:42:52.539Z,992.08
2023-04-12T05:43:52.527Z,992.10
2023-04-12T05:44:52.494Z,992.07
2023-04-12T05:45:52.511Z,992.08
2023-04-12T05:46:52.407Z,992.06
2023-04-12T05:48:13.442Z,992.01
2023-04-12T05:48:52.328Z,992.00
2023-04-12T05:49:52.293Z,991.95
2023-04-12T05:50:52.269Z,991.99
2023-04-12T05:51:52.218Z,991.98
2023-04-12T05:52:52.184Z,991.94
2023-04-12T05:54:13.148Z,991.99
2023-04-12T05:54:52.121Z,991.96
2023-04-12T05:55:52.075Z,991.97
2023-04-12T05:56:52.055Z,991.94
2023-04-12T05:57:52.004Z,991.94
2023-04-12T05:58:51.973Z,991.91
2023-04-12T06:00:12.952Z,991.89
2023-04-12T06:00:51.901Z,991.91
2023-04-12T06:01:51.887Z,991.89
2023-04-12T06:02:51.847Z,991.89
2023-04-12T06:03:51.911Z,991.91
2023-04-12T06:04:52.068Z,991.85
2023-04-12T06:06:12.719Z,991.88
2023-04-12T06:06:51.684Z,991.81
2023-04-12T06:07:51.640Z,991.85
2023-04-12T06:08:51.608Z,991.85
2023-04-12T06:09:51.579Z,991.80
2023-04-12T06:10:51.534Z,991.78
2023-04-12T06:12:12.490Z,991.78
2023-04-12T06:12:51.462Z,991.75
2023-04-12T06:13:51.427Z,991.75
2023-04-12T06:14:51.380Z,991.73
2023-04-12T06:15:51.392Z,991.72
2023-04-12T06:16:51.315Z,991.73
2023-04-12T06:18:12.279Z,991.68
2023-04-12T06:18:51.238Z,991.69
2023-04-12T06:19:51.209Z,991.66
2023-04-12T06:20:51.193Z,991.63
2023-04-12T06:21:51.132Z,991.61
2023-04-12T06:22:51.095Z,991.65
2023-04-12T06:24:12.057Z,991.62
2023-04-12T06:24:51.028Z,991.57
2023-04-12T06:25:50.999Z,991.54
2023-04-12T06:26:50.948Z,991.57
2023-04-12T06:27:50.938Z,991.51
2023-04-12T06:28:50.903Z,991.48
2023-04-12T06:30:11.838Z,991.47
2023-04-12T06:30:50.826Z,991.50
2023-04-12T06:31:50.851Z,991.41
2023-04-12T06:32:50.770Z,991.42
2023-04-12T06:33:50.694Z,991.43
2023-04-12T06:34:50.664Z,991.43
2023-04-12T06:36:11.686Z,991.42
2023-04-12T06:36:50.584Z,991.41
2023-04-12T06:37:50.562Z,991.44
2023-04-12T06:38:50.507Z,991.37
2023-04-12T06:39:50.479Z,991.38
2023-04-12T06:40:50.604Z,991.37
2023-04-12T06:42:14.011Z,991.28
2023-04-12T06:42:50.379Z,991.30
2023-04-12T06:43:50.330Z,991.24
2023-04-12T06:44:50.297Z,991.20
2023-04-12T06:45:50.284Z,991.18
2023-04-12T06:46:50.266Z,991.20
2023-04-12T06:48:11.297Z,991.14
2023-04-12T06:48:50.148Z,991.14
2023-04-12T06:49:50.113Z,991.12
2023-04-12T06:50:50.074Z,991.14
2023-04-12T06:51:50.051Z,991.12
2023-04-12T06:52:50.012Z,991.08
2023-04-12T06:54:10.963Z,991.08
2023-04-12T06:54:49.925Z,991.03
2023-04-12T06:55:49.901Z,991.03
2023-04-12T06:56:49.866Z,991.01
2023-04-12T06:57:49.816Z,991.00
2023-04-12T06:58:49.889Z,990.98
2023-04-12T07:00:10.736Z,990.94
2023-04-12T07:00:49.769Z,990.89
2023-04-12T07:01:49.725Z,990.87
2023-04-12T07:02:49.805Z,990.84
2023-04-12T07:03:49.731Z,990.85
2023-04-12T07:04:49.585Z,990.84
2023-04-12T07:06:21.916Z,990.84
2023-04-12T07:06:49.492Z,990.81
2023-04-12T07:07:49.474Z,990.75
2023-04-12T07:08:49.426Z,990.73
2023-04-12T07:09:49.387Z,990.73
2023-04-12T07:10:49.405Z,990.74
2023-04-12T07:12:10.304Z,990.73
2023-04-12T07:12:49.299Z,990.72
2023-04-12T07:13:49.257Z,990.73
2023-04-12T07:14:49.208Z,990.72
2023-04-12T07:15:49.178Z,990.74
2023-04-12T07:16:49.221Z,990.70
2023-04-12T07:18:10.148Z,990.68
2023-04-12T07:18:49.077Z,990.67
2023-04-12T07:19:49.081Z,990.67
2023-04-12T07:20:48.995Z,990.67
2023-04-12T07:21:48.953Z,990.63
2023-04-12T07:22:48.925Z,990.56
2023-04-12T07:24:09.880Z,990.58
2023-04-12T07:24:48.841Z,990.56
2023-04-12T07:25:48.815Z,990.52
2023-04-12T07:26:48.772Z,990.50
2023-04-12T07:27:51.193Z,990.46
2023-04-12T07:28:48.714Z,990.51
2023-04-12T07:30:09.699Z,990.39
2023-04-12T07:30:48.649Z,990.43
2023-04-12T07:31:48.596Z,990.47
2023-04-12T07:32:48.626Z,990.44
2023-04-12T07:33:48.624Z,990.38
2023-04-12T07:34:48.540Z,990.40
2023-04-12T07:36:09.501Z,990.41
2023-04-12T07:36:48.422Z,990.35
2023-04-12T07:37:48.395Z,990.34
2023-04-12T07:38:48.343Z,990.35
2023-04-12T07:39:48.342Z,990.35
2023-04-12T07:40:50.259Z,990.28
2023-04-12T07:42:09.236Z,990.31
2023-04-12T07:42:48.192Z,990.32
2023-04-12T07:43:48.164Z,990.33
2023-04-12T07:44:48.141Z,990.33
2023-04-12T07:45:48.157Z,990.39
2023-04-12T07:46:48.054Z,990.40
2023-04-12T07:48:09.025Z,990.39
2023-04-12T07:48:47.982Z,990.36
2023-04-12T07:49:47.966Z,990.41
2023-04-12T07:50:47.935Z,990.39
2023-04-12T07:51:47.886Z,990.39
2023-04-12T07:52:47.835Z,990.42
2023-04-12T07:54:08.806Z,990.43
2023-04-12T07:54:47.768Z,990.40
2023-04-12T07:55:47.731Z,990.36
2023-04-12T07:56:47.696Z,990.38
2023-04-12T07:57:47.672Z,990.37
2023-04-12T07:58:47.622Z,990.36
2023-04-12T08:00:08.595Z,990.37
2023-04-12T08:00:47.557Z,990.36
2023-04-12T08:01:47.569Z,990.32
2023-04-12T08:02:47.634Z,990.33
2023-04-12T08:03:47.642Z,990.33
2023-04-12T08:04:47.411Z,990.30
2023-04-12T08:06:08.466Z,990.28
2023-04-12T08:06:47.352Z,990.28
2023-04-12T08:07:47.401Z,990.28
2023-04-12T08:08:47.309Z,990.27
2023-04-12T08:09:47.237Z,990.32
2023-04-12T08:10:47.196Z,990.35
2023-04-12T08:12:08.177Z,990.34
2023-04-12T08:12:47.132Z,990.32
2023-04-12T08:13:47.101Z,990.36
2023-04-12T08:14:47.067Z,990.31
2023-04-12T08:15:47.083Z,990.27
2023-04-12T08:16:46.987Z,990.21
2023-04-12T08:18:08.010Z,990.18
2023-04-12T08:18:46.928Z,990.17
2023-04-12T08:19:46.888Z,990.11
2023-04-12T08:20:46.845Z,990.14
2023-04-12T08:21:46.864Z,990.11
2023-04-12T08:22:46.764Z,990.17
2023-04-12T08:24:07.741Z,990.13
2023-04-12T08:24:46.709Z,990.13
2023-04-12T08:25:46.688Z,990.15
2023-04-12T08:26:46.623Z,990.14
2023-04-12T08:27:46.597Z,990.15
2023-04-12T08:28:46.563Z,990.17
2023-04-12T08:30:07.520Z,990.16
2023-04-12T08:30:46.498Z,990.15
2023-04-12T08:31:46.486Z,990.14
2023-04-12T08:32:46.456Z,990.15
2023-04-12T08:33:46.385Z,990.17
2023-04-12T08:34:46.344Z,990.15
2023-04-12T08:36:07.335Z,990.17
2023-04-12T08:36:46.276Z,990.17
2023-04-12T08:37:46.250Z,990.16
2023-04-12T08:38:46.754Z,990.21
2023-04-12T08:39:46.216Z,990.16
2023-04-12T08:40:46.134Z,990.18
2023-04-12T08:42:07.122Z,990.16
2023-04-12T08:42:46.120Z,990.12
2023-04-12T08:43:46.095Z,990.16
2023-04-12T08:44:46.014Z,990.08
2023-04-12T08:45:45.971Z,990.14
2023-04-12T08:46:46.000Z,990.12
2023-04-12T08:48:06.955Z,990.09
2023-04-12T08:48:45.849Z,990.12
2023-04-12T08:49:45.828Z,990.10
2023-04-12T08:50:45.791Z,990.10
2023-04-12T08:51:45.765Z,990.09
2023-04-12T08:52:45.712Z,990.09
2023-04-12T08:54:06.679Z,990.05
2023-04-12T08:54:45.650Z,990.07
2023-04-12T08:55:45.649Z,990.05
2023-04-12T08:56:45.576Z,990.03
2023-04-12T08:57:45.537Z,990.02
2023-04-12T08:58:45.523Z,990.04
2023-04-12T09:00:06.460Z,989.99
2023-04-12T09:00:45.426Z,990.02
2023-04-12T09:01:45.450Z,990.05
2023-04-12T09:02:45.587Z,990.03
2023-04-12T09:03:45.472Z,990.00
2023-04-12T09:04:45.414Z,990.02
2023-04-12T09:06:06.251Z,990.06
2023-04-12T09:06:45.225Z,990.06
2023-04-12T09:07:45.207Z,990.03
2023-04-12T09:08:45.153Z,990.09
2023-04-12T09:09:45.161Z,990.04
2023-04-12T09:10:45.172Z,990.01
2023-04-12T09:12:06.119Z,990.01
2023-04-12T09:12:45.011Z,990.00
2023-04-12T09:13:44.985Z,990.00
2023-04-12T09:14:44.961Z,989.99
2023-04-12T09:15:44.915Z,989.99
2023-04-12T09:16:44.914Z,990.02
2023-04-12T09:18:05.880Z,989.98
2023-04-12T09:18:44.805Z,990.04
2023-04-12T09:19:44.783Z,990.03
2023-04-12T09:20:44.755Z,990.03
2023-04-12T09:21:44.712Z,990.04
2023-04-12T09:22:44.682Z,990.05
2023-04-12T09:24:05.644Z,990.02
2023-04-12T09:24:44.622Z,990.06
2023-04-12T09:25:44.567Z,990.05
2023-04-12T09:26:44.564Z,990.05
2023-04-12T09:27:44.498Z,990.03
2023-04-12T09:28:44.460Z,990.02
2023-04-12T09:30:05.418Z,989.99
2023-04-12T09:30:44.396Z,989.96
2023-04-12T09:31:44.388Z,989.94
2023-04-12T09:32:44.404Z,989.96
2023-04-12T09:33:44.304Z,990.01
2023-04-12T09:34:44.256Z,990.00
2023-04-12T09:36:05.246Z,990.02
2023-04-12T09:36:44.203Z,989.97
2023-04-12T09:37:44.149Z,989.98
2023-04-12T09:38:44.119Z,989.98
2023-04-12T09:39:44.145Z,990.00
2023-04-12T09:40:44.067Z,989.98
2023-04-12T09:42:05.002Z,989.96
2023-04-12T09:42:43.979Z,989.93
2023-04-12T09:43:44.003Z,989.91
2023-04-12T09:44:43.917Z,989.84
2023-04-12T09:45:43.883Z,989.81
2023-04-12T09:46:44.937Z,989.81
2023-04-12T09:48:04.918Z,989.82
2023-04-12T09:48:43.845Z,989.78
2023-04-12T09:49:43.728Z,989.79
2023-04-12T09:50:43.696Z,989.77
2023-04-12T09:51:43.663Z,989.77
2023-04-12T09:52:43.640Z,989.77
2023-04-12T09:54:04.621Z,989.79
2023-04-12T09:54:43.730Z,989.76
2023-04-12T09:55:43.529Z,989.71
2023-04-12T09:56:43.494Z,989.69
2023-04-12T09:57:43.461Z,989.68
2023-04-12T09:58:43.423Z,989.69
2023-04-12T10:00:04.528Z,989.62
2023-04-12T10:00:43.371Z,989.65
2023-04-12T10:01:43.415Z,989.61
2023-04-12T10:02:45.036Z,989.60
2023-04-12T10:03:43.394Z,989.55
2023-04-12T10:04:43.289Z,989.57
2023-04-12T10:06:04.202Z,989.61
2023-04-12T10:06:43.146Z,989.68
2023-04-12T10:07:43.123Z,989.71
2023-04-12T10:08:43.070Z,989.70
2023-04-12T10:09:43.065Z,989.75
2023-04-12T10:10:42.996Z,989.73
2023-04-12T10:12:03.972Z,989.76
2023-04-12T10:12:42.950Z,989.82
2023-04-12T10:13:42.896Z,989.78
2023-04-12T10:14:42.863Z,989.81
2023-04-12T10:15:42.855Z,989.80
2023-04-12T10:16:42.899Z,989.85
2023-04-12T10:18:03.783Z,989.83
2023-04-12T10:18:42.747Z,989.82
2023-04-12T10:19:42.703Z,989.91
2023-04-12T10:20:42.652Z,989.87
2023-04-12T10:21:42.632Z,989.86
2023-04-12T10:22:42.586Z,989.90
2023-04-12T10:24:03.559Z,989.85
2023-04-12T10:24:42.503Z,989.88
2023-04-12T10:25:42.488Z,989.90
2023-04-12T10:26:42.459Z,989.86
2023-04-12T10:27:42.414Z,989.86
2023-04-12T10:28:42.395Z,989.83
2023-04-12T10:30:03.343Z,989.81
2023-04-12T10:30:42.368Z,989.86
2023-04-12T10:31:42.383Z,989.90
2023-04-12T10:32:42.284Z,989.95
2023-04-12T10:33:42.532Z,989.99
2023-04-12T10:34:42.176Z,990.02
2023-04-12T10:36:03.165Z,990.12
2023-04-12T10:36:42.080Z,990.14
2023-04-12T10:37:42.070Z,990.14
2023-04-12T10:38:42.012Z,990.20
2023-04-12T10:39:42.004Z,990.19
2023-04-12T10:40:41.941Z,990.20
2023-04-12T10:42:02.922Z,990.30
2023-04-12T10:42:41.870Z,990.23
2023-04-12T10:43:41.845Z,990.28
2023-04-12T10:44:41.828Z,990.26
2023-04-12T10:45:41.793Z,990.29
2023-04-12T10:46:41.767Z,990.33
2023-04-12T10:48:02.880Z,990.34
2023-04-12T10:48:41.732Z,990.37
2023-04-12T10:49:41.619Z,990.36
2023-04-12T10:50:41.628Z,990.37
2023-04-12T10:51:41.580Z,990.35
2023-04-12T10:52:41.509Z,990.33
2023-04-12T10:54:02.518Z,990.33
2023-04-12T10:54:41.454Z,990.20
2023-04-12T10:55:41.448Z,990.23
2023-04-12T10:56:41.393Z,990.22
2023-04-12T10:57:41.407Z,990.20
2023-04-12T10:58:41.306Z,990.22
2023-04-12T11:00:02.309Z,990.20
2023-04-12T11:00:41.346Z,990.15
2023-04-12T11:01:41.334Z,990.16
2023-04-12T11:02:41.254Z,990.13
2023-04-12T11:03:41.364Z,990.13
2023-04-12T11:04:41.185Z,990.14
2023-04-12T11:06:12.667Z,990.13
2023-04-12T11:06:41.011Z,990.15
2023-04-12T11:07:40.970Z,990.19
2023-04-12T11:08:41.002Z,990.22
2023-04-12T11:09:40.912Z,990.24
2023-04-12T11:10:40.885Z,990.29
2023-04-12T11:12:01.853Z,990.25
2023-04-12T11:12:40.824Z,990.23
2023-04-12T11:13:40.768Z,990.24
2023-04-12T11:14:40.765Z,990.22
2023-04-12T11:15:40.694Z,990.30
2023-04-12T11:16:40.738Z,990.27
2023-04-12T11:18:01.663Z,990.30
2023-04-12T11:18:40.638Z,990.31
2023-04-12T11:19:40.549Z,990.27
2023-04-12T11:20:40.567Z,990.30
2023-04-12T11:21:40.491Z,990.24
2023-04-12T11:22:40.467Z,990.21
2023-04-12T11:24:01.447Z,990.28
2023-04-12T11:24:40.406Z,990.23
2023-04-12T11:25:40.360Z,990.25
2023-04-12T11:26:40.305Z,990.25
2023-04-12T11:27:40.311Z,990.29
2023-04-12T11:28:40.282Z,990.32
2023-04-12T11:30:01.264Z,990.22
2023-04-12T11:30:40.170Z,990.22
2023-04-12T11:31:40.198Z,990.22
2023-04-12T11:32:40.125Z,990.17
2023-04-12T11:33:40.069Z,990.22
2023-04-12T11:34:40.036Z,990.17
2023-04-12T11:36:00.986Z,990.15
2023-04-12T11:36:39.956Z,990.14
2023-04-12T11:37:39.948Z,990.15
2023-04-12T11:38:39.897Z,990.16
2023-04-12T11:39:39.865Z,990.19
2023-04-12T11:40:39.852Z,990.22
2023-04-12T11:42:00.784Z,990.23
2023-04-12T11:42:39.744Z,990.20
2023-04-12T11:43:39.737Z,990.26
2023-04-12T11:44:55.263Z,990.25
2023-04-12T11:45:39.645Z,990.24
2023-04-12T11:46:39.611Z,990.24
2023-04-12T11:48:00.632Z,990.29
2023-04-12T11:48:39.674Z,990.29
2023-04-12T11:49:39.520Z,990.28
2023-04-12T11:50:39.468Z,990.30
2023-04-12T11:51:39.428Z,990.30
2023-04-12T11:52:39.400Z,990.25
2023-04-12T11:54:00.578Z,990.30
2023-04-12T11:54:39.324Z,990.35
2023-04-12T11:55:39.295Z,990.35
2023-04-12T11:56:39.255Z,990.34
2023-04-12T11:57:39.251Z,990.33
2023-04-12T11:58:39.301Z,990.29
2023-04-12T12:00:00.184Z,990.28
2023-04-12T12:00:39.120Z,990.31
2023-04-12T12:01:39.158Z,990.35
2023-04-12T12:02:46.414Z,990.36
2023-04-12T12:03:39.131Z,990.35
2023-04-12T12:04:39.129Z,990.39
2023-04-12T12:06:00.390Z,990.35
2023-04-12T12:06:39.455Z,990.32
2023-04-12T12:07:38.975Z,990.34
2023-04-12T12:08:38.847Z,990.34
2023-04-12T12:09:38.813Z,990.37
2023-04-12T12:10:46.935Z,990.36
2023-04-12T12:11:59.816Z,990.35
2023-04-12T12:12:38.712Z,990.33
2023-04-12T12:13:39.481Z,990.34
2023-04-12T12:14:38.632Z,990.34
2023-04-12T12:15:38.633Z,990.32
2023-04-12T12:16:38.580Z,990.26
2023-04-12T12:17:59.585Z,990.24
2023-04-12T12:18:38.579Z,990.22
2023-04-12T12:19:38.490Z,990.22
2023-04-12T12:20:38.449Z,990.21
2023-04-12T12:21:38.407Z,990.15
2023-04-12T12:22:38.357Z,990.15
2023-04-12T12:23:59.449Z,990.12
2023-04-12T12:24:42.005Z,990.16
2023-04-12T12:25:38.253Z,990.21
2023-04-12T12:26:38.226Z,990.17
2023-04-12T12:27:38.269Z,990.18